sensor_id;sensor_type;location;lat;lon;timestamp;temperature;humidity
48007;DHT22;33771;48.180;11.400;2022-08-19T00:00:00;17.40;99.90
48007;DHT22;33771;48.180;11.400;2022-08-19T00:02:25;17.40;99.90
48007;DHT22;33771;48.180;11.400;2022-08-19T00:04:51;17.40;99.90
48007;DHT22;33771;48.180;11.400;2022-08-19T00:07:19;17.40;99.90
48007;DHT22;33771;48.180;11.400;2022-08-19T00:09:45;17.50;99.90
48007;DHT22;33771;48.180;11.400;2022-08-19T00:12:10;17.50;99.90
48007;DHT22;33771;48.180;11.400;2022-08-19T00:14:36;17.50;99.90
48007;DHT22;33771;48.180;11.400;2022-08-19T00:17:04;17.50;99.90
48007;DHT22;33771;48.180;11.400;2022-08-19T00:19:32;17.50;99.90
48007;DHT22;33771;48.180;11.400;2022-08-19T00:21:57;17.50;99.90
48007;DHT22;33771;48.180;11.400;2022-08-19T00:24:24;17.50;99.90
48007;DHT22;33771;48.180;11.400;2022-08-19T00:26:49;17.50;99.90
48007;DHT22;33771;48.180;11.400;2022-08-19T00:29:17;17.50;99.90
48007;DHT22;33771;48.180;11.400;2022-08-19T00:31:44;17.50;99.90
48007;DHT22;33771;48.180;11.400;2022-08-19T00:34:11;17.50;99.90
48007;DHT22;33771;48.180;11.400;2022-08-19T00:36:37;17.60;99.90
48007;DHT22;33771;48.180;11.400;2022-08-19T00:39:03;17.60;99.90
48007;DHT22;33771;48.180;11.400;2022-08-19T00:41:29;17.60;99.90
48007;DHT22;33771;48.180;11.400;2022-08-19T00:46:32;17.70;99.90
48007;DHT22;33771;48.180;11.400;2022-08-19T00:48:59;17.70;99.90
48007;DHT22;33771;48.180;11.400;2022-08-19T00:51:27;17.70;99.90
48007;DHT22;33771;48.180;11.400;2022-08-19T00:53:55;17.70;99.90
48007;DHT22;33771;48.180;11.400;2022-08-19T00:56:22;17.70;99.90
48007;DHT22;33771;48.180;11.400;2022-08-19T00:58:48;17.70;99.90
48007;DHT22;33771;48.180;11.400;2022-08-19T01:01:14;17.70;99.90
48007;DHT22;33771;48.180;11.400;2022-08-19T01:03:40;17.70;99.90
48007;DHT22;33771;48.180;11.400;2022-08-19T01:06:06;17.70;99.90
48007;DHT22;33771;48.180;11.400;2022-08-19T01:08:31;17.70;99.90
48007;DHT22;33771;48.180;11.400;2022-08-19T01:10:59;17.70;99.90
48007;DHT22;33771;48.180;11.400;2022-08-19T01:13:28;17.70;99.90
48007;DHT22;33771;48.180;11.400;2022-08-19T01:16:07;17.70;99.90
48007;DHT22;33771;48.180;11.400;2022-08-19T01:18:37;17.70;99.90
48007;DHT22;33771;48.180;11.400;2022-08-19T01:21:24;17.70;99.90
48007;DHT22;33771;48.180;11.400;2022-08-19T01:23:52;17.70;99.90
48007;DHT22;33771;48.180;11.400;2022-08-19T01:26:21;17.70;99.90
48007;DHT22;33771;48.180;11.400;2022-08-19T01:28:50;17.70;99.90
48007;DHT22;33771;48.180;11.400;2022-08-19T01:31:20;17.70;99.90
48007;DHT22;33771;48.180;11.400;2022-08-19T01:33:48;17.70;99.90
48007;DHT22;33771;48.180;11.400;2022-08-19T01:36:21;17.70;99.90
48007;DHT22;33771;48.180;11.400;2022-08-19T01:38:47;17.70;99.90
48007;DHT22;33771;48.180;11.400;2022-08-19T01:41:13;17.70;99.90
48007;DHT22;33771;48.180;11.400;2022-08-19T01:43:40;17.70;99.90
48007;DHT22;33771;48.180;11.400;2022-08-19T01:46:06;17.70;99.90
48007;DHT22;33771;48.180;11.400;2022-08-19T01:48:40;17.70;99.90
48007;DHT22;33771;48.180;11.400;2022-08-19T01:51:07;17.70;99.90
48007;DHT22;33771;48.180;11.400;2022-08-19T01:53:33;17.70;99.90
48007;DHT22;33771;48.180;11.400;2022-08-19T01:56:00;17.70;99.90
48007;DHT22;33771;48.180;11.400;2022-08-19T01:58:41;17.70;99.90
48007;DHT22;33771;48.180;11.400;2022-08-19T02:01:08;17.70;99.90
48007;DHT22;33771;48.180;11.400;2022-08-19T02:03:34;17.70;99.90
48007;DHT22;33771;48.180;11.400;2022-08-19T02:06:03;17.80;99.90
48007;DHT22;33771;48.180;11.400;2022-08-19T02:08:29;17.80;99.90
48007;DHT22;33771;48.180;11.400;2022-08-19T02:10:56;17.80;99.90
48007;DHT22;33771;48.180;11.400;2022-08-19T02:13:22;17.70;99.90
48007;DHT22;33771;48.180;11.400;2022-08-19T02:15:48;17.70;99.90
48007;DHT22;33771;48.180;11.400;2022-08-19T02:18:14;17.70;99.90
48007;DHT22;33771;48.180;11.400;2022-08-19T02:20:41;17.70;99.90
48007;DHT22;33771;48.180;11.400;2022-08-19T02:23:07;17.70;99.90
48007;DHT22;33771;48.180;11.400;2022-08-19T02:25:33;17.70;99.90
48007;DHT22;33771;48.180;11.400;2022-08-19T02:27:58;17.70;99.90
48007;DHT22;33771;48.180;11.400;2022-08-19T02:30:24;17.70;99.90
48007;DHT22;33771;48.180;11.400;2022-08-19T02:32:51;17.70;99.90
48007;DHT22;33771;48.180;11.400;2022-08-19T02:35:17;17.70;99.90
48007;DHT22;33771;48.180;11.400;2022-08-19T02:37:43;17.70;99.90
48007;DHT22;33771;48.180;11.400;2022-08-19T02:40:29;17.70;99.90
48007;DHT22;33771;48.180;11.400;2022-08-19T02:42:55;17.70;99.90
48007;DHT22;33771;48.180;11.400;2022-08-19T02:45:21;17.70;99.90
48007;DHT22;33771;48.180;11.400;2022-08-19T02:47:47;17.60;99.90
48007;DHT22;33771;48.180;11.400;2022-08-19T02:50:12;17.60;99.90
48007;DHT22;33771;48.180;11.400;2022-08-19T02:52:39;17.60;99.90
48007;DHT22;33771;48.180;11.400;2022-08-19T02:55:05;17.60;99.90
48007;DHT22;33771;48.180;11.400;2022-08-19T02:57:31;17.60;99.90
48007;DHT22;33771;48.180;11.400;2022-08-19T02:59:57;17.60;99.90
48007;DHT22;33771;48.180;11.400;2022-08-19T03:02:23;17.60;99.90
48007;DHT22;33771;48.180;11.400;2022-08-19T03:04:49;17.60;99.90
48007;DHT22;33771;48.180;11.400;2022-08-19T03:07:17;17.60;99.90
48007;DHT22;33771;48.180;11.400;2022-08-19T03:09:43;17.70;99.90
48007;DHT22;33771;48.180;11.400;2022-08-19T03:12:09;17.70;99.90
48007;DHT22;33771;48.180;11.400;2022-08-19T03:14:36;17.60;99.90
48007;DHT22;33771;48.180;11.400;2022-08-19T03:17:02;17.60;99.90
48007;DHT22;33771;48.180;11.400;2022-08-19T03:19:29;17.60;99.90
48007;DHT22;33771;48.180;11.400;2022-08-19T03:21:56;17.60;99.90
48007;DHT22;33771;48.180;11.400;2022-08-19T03:24:22;17.60;99.90
48007;DHT22;33771;48.180;11.400;2022-08-19T03:26:52;17.70;99.90
48007;DHT22;33771;48.180;11.400;2022-08-19T03:29:19;17.70;99.90
48007;DHT22;33771;48.180;11.400;2022-08-19T03:31:44;17.60;99.90
48007;DHT22;33771;48.180;11.400;2022-08-19T03:34:12;17.60;99.90
48007;DHT22;33771;48.180;11.400;2022-08-19T03:36:38;17.70;99.90
48007;DHT22;33771;48.180;11.400;2022-08-19T03:39:04;17.70;99.90
48007;DHT22;33771;48.180;11.400;2022-08-19T03:41:33;17.70;99.90
48007;DHT22;33771;48.180;11.400;2022-08-19T03:43:59;17.70;99.90
48007;DHT22;33771;48.180;11.400;2022-08-19T03:46:30;17.70;99.90
48007;DHT22;33771;48.180;11.400;2022-08-19T03:48:57;17.70;99.90
48007;DHT22;33771;48.180;11.400;2022-08-19T03:51:26;17.70;99.90
48007;DHT22;33771;48.180;11.400;2022-08-19T03:53:54;17.70;99.90
48007;DHT22;33771;48.180;11.400;2022-08-19T03:56:20;17.70;99.90
48007;DHT22;33771;48.180;11.400;2022-08-19T03:58:46;17.70;99.90
48007;DHT22;33771;48.180;11.400;2022-08-19T04:01:16;17.70;99.90
48007;DHT22;33771;48.180;11.400;2022-08-19T04:03:43;17.70;99.90
48007;DHT22;33771;48.180;11.400;2022-08-19T04:06:14;17.70;99.90
48007;DHT22;33771;48.180;11.400;2022-08-19T04:08:40;17.70;99.90
48007;DHT22;33771;48.180;11.400;2022-08-19T04:11:08;17.60;99.90
48007;DHT22;33771;48.180;11.400;2022-08-19T04:13:34;17.60;99.90
48007;DHT22;33771;48.180;11.400;2022-08-19T04:16:00;17.60;99.90
48007;DHT22;33771;48.180;11.400;2022-08-19T04:18:25;17.50;99.90
48007;DHT22;33771;48.180;11.400;2022-08-19T04:20:51;17.50;99.90
48007;DHT22;33771;48.180;11.400;2022-08-19T04:23:17;17.50;99.90
48007;DHT22;33771;48.180;11.400;2022-08-19T04:25:44;17.50;99.90
48007;DHT22;33771;48.180;11.400;2022-08-19T04:28:11;17.50;99.90
48007;DHT22;33771;48.180;11.400;2022-08-19T04:30:47;17.50;99.90
48007;DHT22;33771;48.180;11.400;2022-08-19T04:33:15;17.50;99.90
48007;DHT22;33771;48.180;11.400;2022-08-19T04:35:43;17.50;99.90
48007;DHT22;33771;48.180;11.400;2022-08-19T04:38:10;17.60;99.90
48007;DHT22;33771;48.180;11.400;2022-08-19T04:40:44;17.50;99.90
48007;DHT22;33771;48.180;11.400;2022-08-19T04:43:29;17.60;99.90
48007;DHT22;33771;48.180;11.400;2022-08-19T04:45:56;17.60;99.90
48007;DHT22;33771;48.180;11.400;2022-08-19T04:48:21;17.60;99.90
48007;DHT22;33771;48.180;11.400;2022-08-19T04:50:56;17.60;99.90
48007;DHT22;33771;48.180;11.400;2022-08-19T04:53:29;17.60;99.90
48007;DHT22;33771;48.180;11.400;2022-08-19T04:55:56;17.70;99.90
48007;DHT22;33771;48.180;11.400;2022-08-19T04:58:23;17.70;99.90
48007;DHT22;33771;48.180;11.400;2022-08-19T05:00:50;17.70;99.90
48007;DHT22;33771;48.180;11.400;2022-08-19T05:03:16;17.70;99.90
48007;DHT22;33771;48.180;11.400;2022-08-19T05:05:42;17.70;99.90
48007;DHT22;33771;48.180;11.400;2022-08-19T05:08:08;17.70;99.90
48007;DHT22;33771;48.180;11.400;2022-08-19T05:10:40;17.70;99.90
48007;DHT22;33771;48.180;11.400;2022-08-19T05:13:06;17.70;99.90
48007;DHT22;33771;48.180;11.400;2022-08-19T05:15:31;17.80;99.90
48007;DHT22;33771;48.180;11.400;2022-08-19T05:17:57;17.70;99.90
48007;DHT22;33771;48.180;11.400;2022-08-19T05:20:41;17.70;99.90
48007;DHT22;33771;48.180;11.400;2022-08-19T05:23:25;17.70;99.90
48007;DHT22;33771;48.180;11.400;2022-08-19T05:25:51;17.70;99.90
48007;DHT22;33771;48.180;11.400;2022-08-19T05:28:18;17.70;99.90
48007;DHT22;33771;48.180;11.400;2022-08-19T05:30:44;17.80;99.90
48007;DHT22;33771;48.180;11.400;2022-08-19T05:33:10;17.80;99.90
48007;DHT22;33771;48.180;11.400;2022-08-19T05:35:38;17.80;99.90
48007;DHT22;33771;48.180;11.400;2022-08-19T05:38:05;17.80;99.90
48007;DHT22;33771;48.180;11.400;2022-08-19T05:40:34;17.80;99.90
48007;DHT22;33771;48.180;11.400;2022-08-19T05:43:02;17.90;99.90
48007;DHT22;33771;48.180;11.400;2022-08-19T05:45:27;17.90;99.90
48007;DHT22;33771;48.180;11.400;2022-08-19T05:47:53;17.90;99.90
48007;DHT22;33771;48.180;11.400;2022-08-19T05:50:19;18.00;99.90
48007;DHT22;33771;48.180;11.400;2022-08-19T05:52:45;18.00;99.90
48007;DHT22;33771;48.180;11.400;2022-08-19T05:55:10;18.00;99.90
48007;DHT22;33771;48.180;11.400;2022-08-19T05:57:36;18.00;99.90
48007;DHT22;33771;48.180;11.400;2022-08-19T06:00:04;18.00;99.90
48007;DHT22;33771;48.180;11.400;2022-08-19T06:02:33;18.10;99.90
48007;DHT22;33771;48.180;11.400;2022-08-19T06:05:00;18.10;99.90
48007;DHT22;33771;48.180;11.400;2022-08-19T06:07:28;18.10;99.90
48007;DHT22;33771;48.180;11.400;2022-08-19T06:09:54;18.10;99.90
48007;DHT22;33771;48.180;11.400;2022-08-19T06:12:20;18.10;99.90
48007;DHT22;33771;48.180;11.400;2022-08-19T06:14:51;18.10;99.90
48007;DHT22;33771;48.180;11.400;2022-08-19T06:17:19;18.10;99.90
48007;DHT22;33771;48.180;11.400;2022-08-19T06:19:46;18.10;99.90
48007;DHT22;33771;48.180;11.400;2022-08-19T06:22:16;18.00;99.90
48007;DHT22;33771;48.180;11.400;2022-08-19T06:24:44;18.00;99.90
48007;DHT22;33771;48.180;11.400;2022-08-19T06:27:20;18.10;99.90
48007;DHT22;33771;48.180;11.400;2022-08-19T06:29:46;18.00;99.90
48007;DHT22;33771;48.180;11.400;2022-08-19T06:32:41;18.10;99.90
48007;DHT22;33771;48.180;11.400;2022-08-19T06:35:09;18.10;99.90
48007;DHT22;33771;48.180;11.400;2022-08-19T06:37:38;18.10;99.90
48007;DHT22;33771;48.180;11.400;2022-08-19T06:40:07;18.10;99.90
48007;DHT22;33771;48.180;11.400;2022-08-19T06:42:34;18.10;99.90
48007;DHT22;33771;48.180;11.400;2022-08-19T06:45:00;18.10;99.90
48007;DHT22;33771;48.180;11.400;2022-08-19T06:47:28;18.10;99.90
48007;DHT22;33771;48.180;11.400;2022-08-19T06:50:03;18.10;99.90
48007;DHT22;33771;48.180;11.400;2022-08-19T06:52:34;18.10;99.90
48007;DHT22;33771;48.180;11.400;2022-08-19T06:55:05;18.10;99.90
48007;DHT22;33771;48.180;11.400;2022-08-19T06:57:30;18.10;99.90
48007;DHT22;33771;48.180;11.400;2022-08-19T06:59:58;18.10;99.90
48007;DHT22;33771;48.180;11.400;2022-08-19T07:02:25;18.10;99.90
48007;DHT22;33771;48.180;11.400;2022-08-19T07:04:52;18.10;99.90
48007;DHT22;33771;48.180;11.400;2022-08-19T07:07:19;18.10;99.90
48007;DHT22;33771;48.180;11.400;2022-08-19T07:09:46;18.10;99.90
48007;DHT22;33771;48.180;11.400;2022-08-19T07:12:13;18.10;99.90
48007;DHT22;33771;48.180;11.400;2022-08-19T07:14:44;18.10;99.90
48007;DHT22;33771;48.180;11.400;2022-08-19T07:17:14;18.10;99.90
48007;DHT22;33771;48.180;11.400;2022-08-19T07:19:45;18.20;99.90
48007;DHT22;33771;48.180;11.400;2022-08-19T07:22:14;18.20;99.90
48007;DHT22;33771;48.180;11.400;2022-08-19T07:24:40;18.30;99.90
48007;DHT22;33771;48.180;11.400;2022-08-19T07:27:14;18.40;99.90
48007;DHT22;33771;48.180;11.400;2022-08-19T07:29:44;18.50;99.90
48007;DHT22;33771;48.180;11.400;2022-08-19T07:32:19;18.60;99.90
48007;DHT22;33771;48.180;11.400;2022-08-19T07:34:53;18.70;99.90
48007;DHT22;33771;48.180;11.400;2022-08-19T07:37:24;18.70;99.90
48007;DHT22;33771;48.180;11.400;2022-08-19T07:39:54;18.80;99.90
48007;DHT22;33771;48.180;11.400;2022-08-19T07:42:29;18.80;99.90
48007;DHT22;33771;48.180;11.400;2022-08-19T07:44:55;18.90;99.90
48007;DHT22;33771;48.180;11.400;2022-08-19T07:47:20;19.00;99.90
48007;DHT22;33771;48.180;11.400;2022-08-19T07:49:46;19.10;99.90
48007;DHT22;33771;48.180;11.400;2022-08-19T07:52:12;19.10;99.90
48007;DHT22;33771;48.180;11.400;2022-08-19T07:54:58;19.10;99.90
48007;DHT22;33771;48.180;11.400;2022-08-19T07:57:27;19.20;99.90
48007;DHT22;33771;48.180;11.400;2022-08-19T07:59:55;19.20;99.90
48007;DHT22;33771;48.180;11.400;2022-08-19T08:02:23;19.20;99.90
48007;DHT22;33771;48.180;11.400;2022-08-19T08:04:49;19.20;99.90
48007;DHT22;33771;48.180;11.400;2022-08-19T08:07:34;19.10;99.90
48007;DHT22;33771;48.180;11.400;2022-08-19T08:10:18;19.10;99.90
48007;DHT22;33771;48.180;11.400;2022-08-19T08:12:44;19.10;99.90
48007;DHT22;33771;48.180;11.400;2022-08-19T08:15:14;19.20;99.90
48007;DHT22;33771;48.180;11.400;2022-08-19T08:17:44;19.30;99.90
48007;DHT22;33771;48.180;11.400;2022-08-19T08:20:11;19.30;99.90
48007;DHT22;33771;48.180;11.400;2022-08-19T08:22:37;19.40;99.90
48007;DHT22;33771;48.180;11.400;2022-08-19T08:25:22;19.40;99.90
48007;DHT22;33771;48.180;11.400;2022-08-19T08:27:49;19.30;99.90
48007;DHT22;33771;48.180;11.400;2022-08-19T08:30:18;19.30;99.90
48007;DHT22;33771;48.180;11.400;2022-08-19T08:32:44;19.30;99.90
48007;DHT22;33771;48.180;11.400;2022-08-19T08:35:13;19.20;99.90
48007;DHT22;33771;48.180;11.400;2022-08-19T08:37:39;19.20;99.90
48007;DHT22;33771;48.180;11.400;2022-08-19T08:42:44;19.10;99.90
48007;DHT22;33771;48.180;11.400;2022-08-19T08:45:17;19.10;99.90
48007;DHT22;33771;48.180;11.400;2022-08-19T08:47:47;19.10;99.90
48007;DHT22;33771;48.180;11.400;2022-08-19T08:50:20;19.00;99.90
48007;DHT22;33771;48.180;11.400;2022-08-19T08:52:50;19.00;99.90
48007;DHT22;33771;48.180;11.400;2022-08-19T08:55:20;18.90;99.90
48007;DHT22;33771;48.180;11.400;2022-08-19T09:00:42;18.90;99.90
48007;DHT22;33771;48.180;11.400;2022-08-19T09:03:34;18.90;99.90
48007;DHT22;33771;48.180;11.400;2022-08-19T09:06:11;18.90;99.90
48007;DHT22;33771;48.180;11.400;2022-08-19T09:11:43;18.80;99.90
48007;DHT22;33771;48.180;11.400;2022-08-19T09:14:32;18.80;99.90
48007;DHT22;33771;48.180;11.400;2022-08-19T09:16:59;18.80;99.90
48007;DHT22;33771;48.180;11.400;2022-08-19T09:19:29;18.90;99.90
48007;DHT22;33771;48.180;11.400;2022-08-19T09:21:55;18.90;99.90
48007;DHT22;33771;48.180;11.400;2022-08-19T09:24:20;18.90;99.90
48007;DHT22;33771;48.180;11.400;2022-08-19T09:26:46;18.90;99.90
48007;DHT22;33771;48.180;11.400;2022-08-19T09:29:12;19.00;99.90
48007;DHT22;33771;48.180;11.400;2022-08-19T09:31:38;19.00;99.90
48007;DHT22;33771;48.180;11.400;2022-08-19T09:34:04;19.10;99.90
48007;DHT22;33771;48.180;11.400;2022-08-19T09:36:30;19.10;99.90
48007;DHT22;33771;48.180;11.400;2022-08-19T09:39:04;19.10;99.90
48007;DHT22;33771;48.180;11.400;2022-08-19T09:41:31;19.20;99.90
48007;DHT22;33771;48.180;11.400;2022-08-19T09:43:57;19.20;99.90
48007;DHT22;33771;48.180;11.400;2022-08-19T09:46:26;19.20;99.90
48007;DHT22;33771;48.180;11.400;2022-08-19T09:48:52;19.10;99.90
48007;DHT22;33771;48.180;11.400;2022-08-19T09:51:21;19.10;99.90
48007;DHT22;33771;48.180;11.400;2022-08-19T09:53:48;19.10;99.90
48007;DHT22;33771;48.180;11.400;2022-08-19T09:56:20;19.10;99.90
48007;DHT22;33771;48.180;11.400;2022-08-19T09:58:47;19.10;99.90
48007;DHT22;33771;48.180;11.400;2022-08-19T10:01:22;19.20;99.90
48007;DHT22;33771;48.180;11.400;2022-08-19T10:03:53;19.20;99.90
48007;DHT22;33771;48.180;11.400;2022-08-19T10:06:23;19.20;99.90
48007;DHT22;33771;48.180;11.400;2022-08-19T10:08:50;19.20;99.90
48007;DHT22;33771;48.180;11.400;2022-08-19T10:11:18;19.20;99.90
48007;DHT22;33771;48.180;11.400;2022-08-19T10:13:44;19.20;99.90
48007;DHT22;33771;48.180;11.400;2022-08-19T10:16:13;19.30;99.90
48007;DHT22;33771;48.180;11.400;2022-08-19T10:18:40;19.40;99.90
48007;DHT22;33771;48.180;11.400;2022-08-19T10:21:13;19.40;99.90
48007;DHT22;33771;48.180;11.400;2022-08-19T10:23:41;19.50;99.90
48007;DHT22;33771;48.180;11.400;2022-08-19T10:26:11;19.50;99.90
48007;DHT22;33771;48.180;11.400;2022-08-19T10:28:37;19.60;99.90
48007;DHT22;33771;48.180;11.400;2022-08-19T10:31:08;19.70;99.90
48007;DHT22;33771;48.180;11.400;2022-08-19T10:33:34;19.70;99.90
48007;DHT22;33771;48.180;11.400;2022-08-19T10:36:03;19.70;99.90
48007;DHT22;33771;48.180;11.400;2022-08-19T10:38:29;19.80;99.90
48007;DHT22;33771;48.180;11.400;2022-08-19T10:40:55;19.90;99.90
48007;DHT22;33771;48.180;11.400;2022-08-19T10:43:21;20.00;99.90
48007;DHT22;33771;48.180;11.400;2022-08-19T10:45:55;20.00;99.90
48007;DHT22;33771;48.180;11.400;2022-08-19T10:48:22;19.90;99.90
48007;DHT22;33771;48.180;11.400;2022-08-19T10:50:47;19.90;99.90
48007;DHT22;33771;48.180;11.400;2022-08-19T10:53:32;19.90;99.90
48007;DHT22;33771;48.180;11.400;2022-08-19T10:55:57;20.10;99.90
48007;DHT22;33771;48.180;11.400;2022-08-19T10:58:41;20.30;99.90
48007;DHT22;33771;48.180;11.400;2022-08-19T11:01:07;20.40;99.90
48007;DHT22;33771;48.180;11.400;2022-08-19T11:03:32;20.60;99.90
48007;DHT22;33771;48.180;11.400;2022-08-19T11:06:06;20.90;99.90
48007;DHT22;33771;48.180;11.400;2022-08-19T11:08:33;21.20;99.90
48007;DHT22;33771;48.180;11.400;2022-08-19T11:11:01;21.40;99.90
48007;DHT22;33771;48.180;11.400;2022-08-19T11:13:33;21.60;99.90
48007;DHT22;33771;48.180;11.400;2022-08-19T11:16:08;21.70;99.90
48007;DHT22;33771;48.180;11.400;2022-08-19T11:18:38;21.80;99.90
48007;DHT22;33771;48.180;11.400;2022-08-19T11:21:15;21.80;99.90
48007;DHT22;33771;48.180;11.400;2022-08-19T11:23:45;21.80;99.90
48007;DHT22;33771;48.180;11.400;2022-08-19T11:26:12;21.80;99.90
48007;DHT22;33771;48.180;11.400;2022-08-19T11:28:42;21.80;99.90
48007;DHT22;33771;48.180;11.400;2022-08-19T11:31:16;21.60;99.90
48007;DHT22;33771;48.180;11.400;2022-08-19T11:33:42;21.80;99.90
48007;DHT22;33771;48.180;11.400;2022-08-19T11:36:08;21.80;99.90
48007;DHT22;33771;48.180;11.400;2022-08-19T11:38:38;22.00;99.90
48007;DHT22;33771;48.180;11.400;2022-08-19T11:41:06;22.30;99.90
48007;DHT22;33771;48.180;11.400;2022-08-19T11:43:33;22.40;99.90
48007;DHT22;33771;48.180;11.400;2022-08-19T11:45:59;22.10;99.90
48007;DHT22;33771;48.180;11.400;2022-08-19T11:48:25;21.90;99.90
48007;DHT22;33771;48.180;11.400;2022-08-19T11:50:54;21.80;99.90
48007;DHT22;33771;48.180;11.400;2022-08-19T11:53:23;21.60;99.90
48007;DHT22;33771;48.180;11.400;2022-08-19T11:55:50;21.50;99.90
48007;DHT22;33771;48.180;11.400;2022-08-19T11:58:19;21.30;99.90
48007;DHT22;33771;48.180;11.400;2022-08-19T12:00:44;21.10;99.90
48007;DHT22;33771;48.180;11.400;2022-08-19T12:03:12;21.00;99.90
48007;DHT22;33771;48.180;11.400;2022-08-19T12:05:39;20.90;99.90
48007;DHT22;33771;48.180;11.400;2022-08-19T12:08:06;20.90;99.90
48007;DHT22;33771;48.180;11.400;2022-08-19T12:10:32;20.80;99.90
48007;DHT22;33771;48.180;11.400;2022-08-19T12:12:58;20.80;99.90
48007;DHT22;33771;48.180;11.400;2022-08-19T12:15:23;20.70;99.90
48007;DHT22;33771;48.180;11.400;2022-08-19T12:17:49;20.70;99.90
48007;DHT22;33771;48.180;11.400;2022-08-19T12:20:15;20.80;99.90
48007;DHT22;33771;48.180;11.400;2022-08-19T12:22:43;20.90;99.90
48007;DHT22;33771;48.180;11.400;2022-08-19T12:25:10;21.00;99.90
48007;DHT22;33771;48.180;11.400;2022-08-19T12:27:37;21.10;99.90
48007;DHT22;33771;48.180;11.400;2022-08-19T12:30:03;21.20;99.90
48007;DHT22;33771;48.180;11.400;2022-08-19T12:32:29;21.30;99.90
48007;DHT22;33771;48.180;11.400;2022-08-19T12:34:55;21.60;99.90
48007;DHT22;33771;48.180;11.400;2022-08-19T12:37:21;21.80;99.90
48007;DHT22;33771;48.180;11.400;2022-08-19T12:39:47;21.70;99.90
48007;DHT22;33771;48.180;11.400;2022-08-19T12:42:13;21.80;99.90
48007;DHT22;33771;48.180;11.400;2022-08-19T12:44:41;22.00;99.90
48007;DHT22;33771;48.180;11.400;2022-08-19T12:47:08;22.00;99.90
48007;DHT22;33771;48.180;11.400;2022-08-19T12:49:37;21.90;99.90
48007;DHT22;33771;48.180;11.400;2022-08-19T12:52:07;21.90;99.90
48007;DHT22;33771;48.180;11.400;2022-08-19T12:54:34;21.80;99.90
48007;DHT22;33771;48.180;11.400;2022-08-19T12:57:00;21.70;99.90
48007;DHT22;33771;48.180;11.400;2022-08-19T12:59:26;21.70;99.90
48007;DHT22;33771;48.180;11.400;2022-08-19T13:01:52;21.70;99.90
48007;DHT22;33771;48.180;11.400;2022-08-19T13:04:18;21.70;99.90
48007;DHT22;33771;48.180;11.400;2022-08-19T13:06:43;21.70;99.90
48007;DHT22;33771;48.180;11.400;2022-08-19T13:09:09;21.70;99.90
48007;DHT22;33771;48.180;11.400;2022-08-19T13:11:36;21.70;99.90
48007;DHT22;33771;48.180;11.400;2022-08-19T13:14:09;21.60;99.90
48007;DHT22;33771;48.180;11.400;2022-08-19T13:16:36;21.60;99.90
48007;DHT22;33771;48.180;11.400;2022-08-19T13:19:04;21.50;99.90
48007;DHT22;33771;48.180;11.400;2022-08-19T13:21:31;21.40;99.90
48007;DHT22;33771;48.180;11.400;2022-08-19T13:23:57;21.10;99.90
48007;DHT22;33771;48.180;11.400;2022-08-19T13:26:23;20.90;99.90
48007;DHT22;33771;48.180;11.400;2022-08-19T13:28:49;20.70;99.90
48007;DHT22;33771;48.180;11.400;2022-08-19T13:31:39;20.50;99.90
48007;DHT22;33771;48.180;11.400;2022-08-19T13:34:30;20.50;99.90
48007;DHT22;33771;48.180;11.400;2022-08-19T13:36:57;20.60;99.90
48007;DHT22;33771;48.180;11.400;2022-08-19T13:39:22;20.50;99.90
48007;DHT22;33771;48.180;11.400;2022-08-19T13:41:49;20.50;99.90
48007;DHT22;33771;48.180;11.400;2022-08-19T13:44:19;20.50;99.90
48007;DHT22;33771;48.180;11.400;2022-08-19T13:46:49;20.40;99.90
48007;DHT22;33771;48.180;11.400;2022-08-19T13:49:18;20.30;99.90
48007;DHT22;33771;48.180;11.400;2022-08-19T13:51:44;20.30;99.90
48007;DHT22;33771;48.180;11.400;2022-08-19T13:54:16;20.30;99.90
48007;DHT22;33771;48.180;11.400;2022-08-19T13:56:44;20.30;99.90
48007;DHT22;33771;48.180;11.400;2022-08-19T13:59:12;20.30;99.90
48007;DHT22;33771;48.180;11.400;2022-08-19T14:01:40;20.30;99.90
48007;DHT22;33771;48.180;11.400;2022-08-19T14:04:09;20.20;99.90
48007;DHT22;33771;48.180;11.400;2022-08-19T14:06:37;20.30;99.90
48007;DHT22;33771;48.180;11.400;2022-08-19T14:09:05;20.30;99.90
48007;DHT22;33771;48.180;11.400;2022-08-19T14:11:31;20.30;99.90
48007;DHT22;33771;48.180;11.400;2022-08-19T14:13:56;20.40;99.90
48007;DHT22;33771;48.180;11.400;2022-08-19T14:16:22;20.50;99.90
48007;DHT22;33771;48.180;11.400;2022-08-19T14:18:48;20.50;99.90
48007;DHT22;33771;48.180;11.400;2022-08-19T14:21:21;20.50;99.90
48007;DHT22;33771;48.180;11.400;2022-08-19T14:23:50;20.60;99.90
48007;DHT22;33771;48.180;11.400;2022-08-19T14:26:17;20.60;99.90
48007;DHT22;33771;48.180;11.400;2022-08-19T14:28:46;20.60;99.90
48007;DHT22;33771;48.180;11.400;2022-08-19T14:31:20;20.50;99.90
48007;DHT22;33771;48.180;11.400;2022-08-19T14:33:49;20.40;99.90
48007;DHT22;33771;48.180;11.400;2022-08-19T14:36:16;20.30;99.90
48007;DHT22;33771;48.180;11.400;2022-08-19T14:38:42;20.30;99.90
48007;DHT22;33771;48.180;11.400;2022-08-19T14:41:20;20.30;99.90
48007;DHT22;33771;48.180;11.400;2022-08-19T14:43:48;20.30;99.90
48007;DHT22;33771;48.180;11.400;2022-08-19T14:46:19;20.20;99.90
48007;DHT22;33771;48.180;11.400;2022-08-19T14:48:46;20.20;99.90
48007;DHT22;33771;48.180;11.400;2022-08-19T14:51:20;20.20;99.90
48007;DHT22;33771;48.180;11.400;2022-08-19T14:53:46;20.20;99.90
48007;DHT22;33771;48.180;11.400;2022-08-19T14:56:18;20.20;99.90
48007;DHT22;33771;48.180;11.400;2022-08-19T14:58:44;20.20;99.90
48007;DHT22;33771;48.180;11.400;2022-08-19T15:01:12;20.20;99.90
48007;DHT22;33771;48.180;11.400;2022-08-19T15:03:37;20.10;99.90
48007;DHT22;33771;48.180;11.400;2022-08-19T15:06:04;20.00;99.90
48007;DHT22;33771;48.180;11.400;2022-08-19T15:08:32;19.90;99.90
48007;DHT22;33771;48.180;11.400;2022-08-19T15:10:59;19.90;99.90
48007;DHT22;33771;48.180;11.400;2022-08-19T15:13:26;19.70;99.90
48007;DHT22;33771;48.180;11.400;2022-08-19T15:15:52;19.70;99.90
48007;DHT22;33771;48.180;11.400;2022-08-19T15:18:18;19.60;99.90
48007;DHT22;33771;48.180;11.400;2022-08-19T15:20:46;19.50;99.90
48007;DHT22;33771;48.180;11.400;2022-08-19T15:23:13;19.40;99.90
48007;DHT22;33771;48.180;11.400;2022-08-19T15:25:40;19.30;99.90
48007;DHT22;33771;48.180;11.400;2022-08-19T15:28:06;19.30;99.90
48007;DHT22;33771;48.180;11.400;2022-08-19T15:30:32;19.30;99.90
48007;DHT22;33771;48.180;11.400;2022-08-19T15:32:59;19.30;99.90